Aérodrome :
LOGIN :

S'inscrire | Disclaimer

   EN    FR    IT 

 










Légende :    VFR   VFR Marginal   IFR   IFR Intensif   IFR Très Intensif
Visi : 
Plafond : 
>= 8 km
>= 3000ft
5 à 8 km
1000 à 3000 ft
1500m à 5 km
500 à 1000 ft
800 à 1500m
200 à 500 ft
< 800m
< 200 ft
Symboles :   Orages  Brouillard  Fortes neiges  Fortes précipitations  Vent > 20 kt
SIGMETs :   Divers  Orages  Givrage  Turbulence  Onde Orograph.  Cendres Volcan.







- Altitude de l'aérodrome : 659 ft
- Code IATA : LGG


EBLG - Liège

DERNIER METAR :
  • 131620Z 19016KT 6000 -RADZ SCT007 BKN009 04/03 Q0996 TEMPO 4000 RADZ BKN007

METARs EXPIRÉS :
  • 131550Z 19014KT 9999 -RADZ SCT008 BKN010 04/02 Q0997 TEMPO 4000 RADZ BKN007
  • 131520Z 20014KT 9999 -RADZ SCT008 BKN010 04/02 Q0998 TEMPO 4000 RADZ BKN007
  • 131450Z 20017KT 9999 BKN010 BKN045 04/02 Q0998 TEMPO 4000 RADZ BKN007
  • 131420Z 20018KT 9999 SCT013 BKN045 04/02 Q0999 TEMPO 4000 RADZ BKN010
  • 131350Z 20016KT 9999 -RA FEW013 BKN015 BKN029 04/02 Q0999 TEMPO 4000 RADZ BKN010

TAF TAF EBLG
Valide du 13 à 12h jusqu'au 14 à 18h UTC


131115Z 1312/1418 22016KT 8000 -RA SCT006 BKN012
TEMPO 1312/1318 20016G30KT
TEMPO 1312/1320 3000 RA SHRA BKN006 BKN012TCU
BECMG 1319/1321 26012KT 9999 SCT015
TEMPO 1400/1403 26018G35KT 3000 SHRASN BKN006 BKN014CB
TEMPO 1407/1418 24015G25KT 3000 SHRA SHRASN BKN006 BKN012CB
Pas de NOTAMs connus pour ce terrain.
1 SIGMET publié pour la FIR Brussels (EBBU) :
 
Turbulence forte
EBBU SIGMET 03 VALID 131600/132000 EBBR
EBBU BRUSSELS FIR SEV TURB FCST W OF LINE N5130 E00500 - N5020 E00400 SFC/FL50 MOV E35KT INTSF=



MET'MAP, la Météo Aéronautique d'un coup d'oeil ! - Copyright ORBIFLY Décembre 2007 - Disclaimer

ORBIFLY MET'MAP TEAM :

Programmation & Développement : Alexandra Zaïnal
Conception & Développement : Baudouin d'Aumeries
Co-Programmation & Développement : Marc-Olivier Méhu
Soutien technique & logistique : Manuel Goepfert

Contact : metmap@orbifly.com




SOURCES & CREDITS :

   NOAA